createdAt,value
2018-09-19T00:01:03.811Z,101142.63
2018-09-19T00:03:32.674Z,101142.88
2018-09-19T00:06:01.581Z,101150.96
2018-09-19T00:08:30.451Z,101152.57
2018-09-19T00:10:59.321Z,101152.92
2018-09-19T00:13:28.194Z,101158.29
2018-09-19T00:15:57.074Z,101157.39
2018-09-19T00:18:25.931Z,101162.40
2018-09-19T00:20:54.793Z,101157.76
2018-09-19T00:23:23.741Z,101160.17
2018-09-19T00:25:52.535Z,101159.80
2018-09-19T00:28:21.408Z,101169.26
2018-09-19T00:30:50.247Z,101163.41
2018-09-19T00:33:19.145Z,101162.00
2018-09-19T00:35:48.028Z,101159.55
2018-09-19T00:38:16.890Z,101159.55
2018-09-19T00:40:45.782Z,101166.11
2018-09-19T00:43:14.754Z,101178.11
2018-09-19T00:45:43.667Z,101181.70
2018-09-19T00:48:12.536Z,101184.95
2018-09-19T00:50:41.400Z,101183.42
2018-09-19T00:53:10.325Z,101181.20
2018-09-19T00:55:39.160Z,101181.88
2018-09-19T00:58:08.086Z,101176.44
2018-09-19T01:00:36.911Z,101174.20
2018-09-19T01:03:05.793Z,101177.98
2018-09-19T01:05:34.689Z,101177.16
2018-09-19T01:08:03.623Z,101169.80
2018-09-19T01:10:32.500Z,101171.52
2018-09-19T01:13:01.373Z,101170.00
2018-09-19T01:15:30.233Z,101175.63
2018-09-19T01:17:59.146Z,101176.17
2018-09-19T01:20:28.051Z,101173.40
2018-09-19T01:22:56.964Z,101171.17
2018-09-19T01:25:25.827Z,101169.63
2018-09-19T01:27:54.718Z,101163.46
2018-09-19T01:30:23.606Z,101169.83
2018-09-19T01:32:52.521Z,101169.66
2018-09-19T01:35:21.397Z,101170.17
2018-09-19T01:37:50.298Z,101166.92
2018-09-19T01:40:19.158Z,101175.54
2018-09-19T01:42:48.017Z,101176.98
2018-09-19T01:45:16.865Z,101179.22
2018-09-19T01:47:45.736Z,101179.91
2018-09-19T01:50:14.623Z,101181.78
2018-09-19T01:52:43.535Z,101180.62
2018-09-19T01:55:12.381Z,101173.46
2018-09-19T01:57:41.337Z,101174.77
2018-09-19T02:00:10.241Z,101185.93
2018-09-19T02:02:39.098Z,101197.06
2018-09-19T02:05:07.967Z,101200.52
2018-09-19T02:07:37.129Z,101192.30
2018-09-19T02:10:06.108Z,101191.06
2018-09-19T02:12:34.961Z,101190.39
2018-09-19T02:15:03.850Z,101195.52
2018-09-19T02:17:32.767Z,101198.30
2018-09-19T02:20:01.668Z,101196.92
2018-09-19T02:22:30.550Z,101202.06
2018-09-19T02:24:59.414Z,101204.97
2018-09-19T02:27:28.259Z,101210.45
2018-09-19T02:29:57.137Z,101205.63
2018-09-19T02:32:26.026Z,101207.50
2018-09-19T02:34:54.916Z,101203.59
2018-09-19T02:37:23.763Z,101199.64
2018-09-19T02:39:52.621Z,101200.52
2018-09-19T02:42:21.571Z,101200.14
2018-09-19T02:44:50.457Z,101203.27
2018-09-19T02:47:19.318Z,101199.33
2018-09-19T02:49:48.193Z,101200.17
2018-09-19T02:52:17.072Z,101193.84
2018-09-19T02:54:45.957Z,101195.39
2018-09-19T02:57:14.840Z,101191.65
2018-09-19T02:59:43.688Z,101188.73
2018-09-19T03:02:12.543Z,101188.06
2018-09-19T03:07:10.276Z,101198.34
2018-09-19T03:09:39.115Z,101202.11
2018-09-19T03:12:07.989Z,101200.73
2018-09-19T03:14:36.860Z,101199.37
2018-09-19T03:17:05.812Z,101204.16
2018-09-19T03:19:34.651Z,101203.98
2018-09-19T03:22:05.668Z,101206.55
2018-09-19T03:24:34.511Z,101206.55
2018-09-19T03:27:03.448Z,101200.89
2018-09-19T03:29:32.325Z,101207.38
2018-09-19T03:32:01.187Z,101206.50
2018-09-19T03:34:30.384Z,101198.37
2018-09-19T03:36:59.255Z,101196.72
2018-09-19T03:39:28.152Z,101193.50
2018-09-19T03:41:57.099Z,101192.60
2018-09-19T03:44:25.962Z,101191.95
2018-09-19T03:46:54.952Z,101195.73
2018-09-19T03:49:23.802Z,101192.99
2018-09-19T03:51:52.746Z,101192.50
2018-09-19T03:54:21.725Z,101193.70
2018-09-19T03:56:50.764Z,101192.31
2018-09-19T03:59:19.891Z,101183.22
2018-09-19T04:01:48.781Z,101183.05
2018-09-19T04:04:17.666Z,101182.36
2018-09-19T04:06:46.606Z,101190.95
2018-09-19T04:09:15.449Z,101181.89
2018-09-19T04:11:44.351Z,101190.30
2018-09-19T04:14:13.268Z,101187.89
2018-09-19T04:16:42.427Z,101188.58
2018-09-19T04:19:11.324Z,101187.89
2018-09-19T04:21:53.129Z,101186.19
2018-09-19T04:24:21.973Z,101190.82
2018-09-19T04:26:50.846Z,101191.84
2018-09-19T04:29:19.694Z,101194.22
2018-09-19T04:31:48.557Z,101191.33
2018-09-19T04:34:17.448Z,101188.60
2018-09-19T04:36:46.341Z,101191.66
2018-09-19T04:39:15.216Z,101199.02
2018-09-19T04:41:44.085Z,101184.48
2018-09-19T04:44:12.952Z,101177.14
2018-09-19T04:46:41.798Z,101176.98
2018-09-19T04:49:10.679Z,101164.12
2018-09-19T04:51:40.418Z,101156.97
2018-09-19T04:54:09.425Z,101142.92
2018-09-19T04:56:38.635Z,101154.71
2018-09-19T04:59:07.473Z,101160.19
2018-09-19T05:01:36.435Z,101157.45
2018-09-19T05:04:05.258Z,101153.17
2018-09-19T05:06:34.127Z,101149.44
2018-09-19T05:09:03.183Z,101160.71
2018-09-19T05:11:32.127Z,101155.56
2018-09-19T05:14:00.952Z,101158.66
2018-09-19T05:16:29.887Z,101152.66
2018-09-19T05:18:58.787Z,101142.77
2018-09-19T05:21:27.659Z,101138.67
2018-09-19T05:23:56.560Z,101138.66
2018-09-19T05:26:25.457Z,101130.44
2018-09-19T05:28:54.280Z,101131.82
2018-09-19T05:31:23.160Z,101132.68
2018-09-19T05:33:52.065Z,101126.19
2018-09-19T05:36:20.923Z,101123.95
2018-09-19T05:38:49.804Z,101120.34
2018-09-19T05:41:18.702Z,101118.66
2018-09-19T05:43:47.582Z,101120.68
2018-09-19T05:46:16.511Z,101113.67
2018-09-19T05:48:45.371Z,101112.47
2018-09-19T05:51:14.214Z,101112.30
2018-09-19T05:53:43.083Z,101110.09
2018-09-19T05:56:11.981Z,101107.84
2018-09-19T05:58:40.887Z,101106.64
2018-09-19T06:01:09.749Z,101108.02
2018-09-19T06:03:38.634Z,101113.16
2018-09-19T06:06:07.511Z,101113.64
2018-09-19T06:08:36.455Z,101121.00
2018-09-19T06:11:05.448Z,101126.97
2018-09-19T06:13:34.386Z,101129.86
2018-09-19T06:16:03.228Z,101127.12
2018-09-19T06:18:32.290Z,101133.42
2018-09-19T06:21:01.175Z,101125.66
2018-09-19T06:23:30.072Z,101121.03
2018-09-19T06:25:59.123Z,101113.79
2018-09-19T06:28:27.993Z,101118.54
2018-09-19T06:30:56.860Z,101125.38
2018-09-19T06:33:25.916Z,101124.66
2018-09-19T06:35:54.894Z,101120.66
2018-09-19T06:38:23.833Z,101123.05
2018-09-19T06:40:52.895Z,101123.97
2018-09-19T06:43:21.652Z,101130.59
2018-09-19T06:45:50.557Z,101130.88
2018-09-19T06:48:19.431Z,101126.25
2018-09-19T06:50:48.328Z,101122.23
2018-09-19T06:53:17.219Z,101132.63
2018-09-19T06:55:46.081Z,101136.50
2018-09-19T06:58:15.016Z,101124.81
2018-09-19T07:00:43.964Z,101111.55
2018-09-19T07:03:12.874Z,101115.03
2018-09-19T07:05:41.803Z,101110.99
2018-09-19T07:08:10.736Z,101112.75
2018-09-19T07:10:39.761Z,101108.19
2018-09-19T07:13:08.620Z,101114.54
2018-09-19T07:15:37.618Z,101118.91
2018-09-19T07:18:06.428Z,101119.19
2018-09-19T07:20:35.336Z,101112.61
2018-09-19T07:23:04.259Z,101126.58
2018-09-19T07:25:33.143Z,101142.92
2018-09-19T07:28:02.035Z,101142.08
2018-09-19T07:30:31.156Z,101144.99
2018-09-19T07:33:00.073Z,101140.45
2018-09-19T07:35:29.055Z,101142.06
2018-09-19T07:37:57.969Z,101142.92
2018-09-19T07:40:27.211Z,101141.52
2018-09-19T07:42:56.030Z,101146.84
2018-09-19T07:45:24.885Z,101155.16
2018-09-19T07:47:53.838Z,101157.41
2018-09-19T07:50:22.729Z,101157.02
2018-09-19T07:52:51.600Z,101164.81
2018-09-19T07:55:20.538Z,101159.49
2018-09-19T07:57:49.382Z,101155.17
2018-09-19T08:00:18.283Z,101153.80
2018-09-19T08:02:47.124Z,101155.55
2018-09-19T08:05:16.050Z,101155.82
2018-09-19T08:07:46.353Z,101157.30
2018-09-19T08:10:13.867Z,101158.91
2018-09-19T08:12:42.865Z,101152.84
2018-09-19T08:15:11.690Z,101145.55
2018-09-19T08:17:42.813Z,101145.23
2018-09-19T08:20:11.725Z,101137.22
2018-09-19T08:22:40.703Z,101142.05
2018-09-19T08:25:09.551Z,101142.58
2018-09-19T08:27:38.458Z,101137.30
2018-09-19T08:30:07.462Z,101135.68
2018-09-19T08:32:36.348Z,101140.51
2018-09-19T08:35:05.445Z,101149.35
2018-09-19T08:37:34.496Z,101146.66
2018-09-19T08:40:06.074Z,101138.37
2018-09-19T08:42:34.964Z,101142.63
2018-09-19T08:45:03.894Z,101146.58
2018-09-19T08:47:32.979Z,101134.28
2018-09-19T08:50:01.817Z,101131.84
2018-09-19T08:52:33.842Z,101141.70
2018-09-19T08:55:53.900Z,101132.15
2018-09-19T08:58:19.453Z,101130.25
2018-09-19T09:00:48.436Z,101135.48
2018-09-19T09:03:17.331Z,101125.25
2018-09-19T09:05:46.293Z,101128.43
2018-09-19T09:08:15.230Z,101130.43
2018-09-19T09:10:44.158Z,101120.20
2018-09-19T09:13:13.054Z,101138.08
2018-09-19T09:15:41.941Z,101147.09
2018-09-19T09:18:10.871Z,101134.07
2018-09-19T09:20:39.907Z,101129.05
2018-09-19T09:23:08.794Z,101128.11
2018-09-19T09:25:37.717Z,101127.28
2018-09-19T09:28:06.678Z,101130.03
2018-09-19T09:30:35.547Z,101120.77
2018-09-19T09:33:04.841Z,101124.84
2018-09-19T09:35:33.713Z,101137.21
2018-09-19T09:38:02.674Z,101139.22
2018-09-19T09:40:31.731Z,101141.05
2018-09-19T09:43:00.582Z,101145.61
2018-09-19T09:45:29.389Z,101156.91
2018-09-19T09:47:58.457Z,101159.88
2018-09-19T09:50:27.319Z,101151.78
2018-09-19T09:53:04.812Z,101153.17
2018-09-19T09:58:37.480Z,101155.58
2018-09-19T10:01:11.337Z,101160.20
2018-09-19T10:03:41.034Z,101140.97
2018-09-19T10:06:18.884Z,101145.30
2018-09-19T10:09:00.836Z,101138.98
2018-09-19T10:11:29.819Z,101141.06
2018-09-19T10:14:10.853Z,101152.44
2018-09-19T10:16:51.954Z,101148.54
2018-09-19T10:19:39.760Z,101160.93
2018-09-19T10:22:15.498Z,101151.39
2018-09-19T10:24:49.494Z,101151.28
2018-09-19T10:27:30.027Z,101162.31
2018-09-19T10:29:59.568Z,101158.61
2018-09-19T10:32:35.632Z,101151.34
2018-09-19T10:35:09.136Z,101143.99
2018-09-19T10:37:47.774Z,101154.53
2018-09-19T10:40:24.623Z,101158.63
2018-09-19T10:42:57.793Z,101155.31
2018-09-19T10:45:27.181Z,101150.36
2018-09-19T10:47:56.867Z,101167.23
2018-09-19T10:50:28.221Z,101162.62
2018-09-19T10:53:06.865Z,101165.84
2018-09-19T10:55:58.372Z,101169.34
2018-09-19T10:58:40.737Z,101162.97
2018-09-19T11:01:28.260Z,101154.56
2018-09-19T11:03:59.723Z,101159.15
2018-09-19T11:06:49.560Z,101167.50
2018-09-19T11:09:22.501Z,101160.47
2018-09-19T11:11:58.883Z,101152.13
2018-09-19T11:14:40.409Z,101157.89
2018-09-19T11:17:22.022Z,101155.95
2018-09-19T11:20:09.026Z,101161.17
2018-09-19T13:20:48.220Z,101108.59
2018-09-19T13:23:17.387Z,101104.81
2018-09-19T13:25:46.505Z,101094.39
2018-09-19T13:28:18.329Z,101104.02
2018-09-19T13:30:47.437Z,101115.75
2018-09-19T13:33:18.371Z,101099.31
2018-09-19T13:35:47.549Z,101107.63
2018-09-19T13:38:19.737Z,101095.08
2018-09-19T13:40:48.771Z,101098.24
2018-09-19T13:43:19.868Z,101101.53
2018-09-19T13:45:49.476Z,101099.02
2018-09-19T13:48:20.413Z,101096.08
2018-09-19T13:50:59.480Z,101085.39
2018-09-19T13:53:30.880Z,101093.17
2018-09-19T13:56:00.042Z,101102.25
2018-09-19T13:58:29.138Z,101098.27
2018-09-19T14:00:58.284Z,101105.83
2018-09-19T14:03:27.561Z,101097.88
2018-09-19T14:05:56.579Z,101092.99
2018-09-19T14:08:25.596Z,101104.26
2018-09-19T14:10:54.757Z,101105.12
2018-09-19T14:13:23.930Z,101089.60
2018-09-19T14:15:52.932Z,101092.69
2018-09-19T14:18:24.004Z,101084.19
2018-09-19T14:20:57.029Z,101090.96
2018-09-19T14:23:24.583Z,101085.73
2018-09-19T14:25:53.927Z,101084.16
2018-09-19T14:28:25.067Z,101076.67
2018-09-19T14:30:54.323Z,101095.47
2018-09-19T14:33:23.547Z,101114.38
2018-09-19T14:35:52.757Z,101092.80
2018-09-19T14:38:21.761Z,101104.73
2018-09-19T14:40:51.038Z,101111.59
2018-09-19T14:43:22.663Z,101097.59
2018-09-19T14:45:49.558Z,101107.47
2018-09-19T14:48:23.585Z,101113.95
2018-09-19T14:50:55.189Z,101105.41
2018-09-19T14:53:26.276Z,101097.75
2018-09-19T14:55:53.453Z,101098.63
2018-09-19T14:58:22.785Z,101099.17
2018-09-19T15:00:54.940Z,101104.53
2018-09-19T15:03:23.807Z,101105.81
2018-09-19T15:05:52.621Z,101106.44
2018-09-19T15:08:21.465Z,101109.62
2018-09-19T15:10:50.308Z,101111.98
2018-09-19T15:13:19.164Z,101123.96
2018-09-19T15:15:47.998Z,101110.75
2018-09-19T15:18:16.852Z,101123.44
2018-09-19T15:20:45.682Z,101119.36
2018-09-19T15:23:14.513Z,101128.59
2018-09-19T15:25:43.332Z,101133.75
2018-09-19T15:28:12.166Z,101133.70
2018-09-19T15:30:41.000Z,101117.48
2018-09-19T15:33:09.882Z,101121.72
2018-09-19T15:35:38.701Z,101125.73
2018-09-19T15:38:07.513Z,101126.44
2018-09-19T15:40:36.374Z,101124.84
2018-09-19T15:43:05.235Z,101127.54
2018-09-19T15:45:34.080Z,101130.00
2018-09-19T15:48:03.059Z,101122.63
2018-09-19T15:50:31.899Z,101115.39
2018-09-19T15:53:00.714Z,101121.68
2018-09-19T15:55:29.609Z,101135.47
2018-09-19T15:57:58.392Z,101118.70
2018-09-19T16:00:27.280Z,101115.25
2018-09-19T16:02:56.137Z,101116.45
2018-09-19T16:05:24.936Z,101125.70
2018-09-19T16:07:53.808Z,101134.05
2018-09-19T16:10:22.661Z,101129.02
2018-09-19T16:12:51.483Z,101134.08
2018-09-19T16:15:20.339Z,101140.62
2018-09-19T16:17:49.241Z,101140.94
2018-09-19T16:20:18.082Z,101138.50
2018-09-19T16:22:46.906Z,101137.50
2018-09-19T16:25:15.753Z,101138.63
2018-09-19T16:27:44.609Z,101140.75
2018-09-19T16:30:13.447Z,101148.00
2018-09-19T16:32:42.340Z,101144.74
2018-09-19T16:35:11.158Z,101148.83
2018-09-19T16:37:39.995Z,101147.25
2018-09-19T16:40:08.837Z,101148.00
2018-09-19T16:42:37.656Z,101148.84
2018-09-19T16:45:06.503Z,101152.23
2018-09-19T16:47:35.521Z,101143.58
2018-09-19T16:50:04.660Z,101144.58
2018-09-19T16:52:33.538Z,101144.90
2018-09-19T16:55:02.383Z,101152.16
2018-09-19T16:57:31.201Z,101150.50
2018-09-19T17:00:00.064Z,101149.89
2018-09-19T17:02:28.911Z,101156.81
2018-09-19T17:04:57.770Z,101161.31
2018-09-19T17:07:26.629Z,101157.41
2018-09-19T17:09:55.460Z,101160.17
2018-09-19T17:12:24.543Z,101158.47
2018-09-19T17:14:53.385Z,101165.20
2018-09-19T17:17:22.225Z,101160.72
2018-09-19T17:19:51.052Z,101161.63
2018-09-19T17:22:19.916Z,101163.41
2018-09-19T17:24:48.731Z,101166.00
2018-09-19T17:27:17.570Z,101173.91
2018-09-19T17:29:46.404Z,101175.20
2018-09-19T17:32:15.222Z,101174.00
2018-09-19T17:34:44.063Z,101172.86
2018-09-19T17:37:12.923Z,101176.80
2018-09-19T17:39:41.744Z,101175.95
2018-09-19T17:42:10.558Z,101174.02
2018-09-19T17:44:39.410Z,101175.61
2018-09-19T17:47:08.241Z,101169.66
2018-09-19T17:49:37.075Z,101175.50
2018-09-19T17:52:05.921Z,101182.62
2018-09-19T17:54:34.767Z,101168.48
2018-09-19T17:57:03.595Z,101176.86
2018-09-19T17:59:32.415Z,101176.21
2018-09-19T18:02:01.250Z,101169.03
2018-09-19T18:04:30.086Z,101181.98
2018-09-19T18:06:58.885Z,101181.98
2018-09-19T18:09:27.743Z,101184.14
2018-09-19T18:11:56.594Z,101184.88
2018-09-19T18:14:25.426Z,101186.05
2018-09-19T18:16:54.266Z,101187.62
2018-09-19T18:19:23.110Z,101179.66
2018-09-19T18:21:51.930Z,101190.06
2018-09-19T18:24:20.778Z,101191.20
2018-09-19T18:26:49.580Z,101200.40
2018-09-19T18:29:18.396Z,101195.84
2018-09-19T18:31:47.276Z,101199.00
2018-09-19T18:34:16.129Z,101197.81
2018-09-19T18:36:44.972Z,101212.20
2018-09-19T18:39:13.831Z,101211.79
2018-09-19T18:41:42.678Z,101215.08
2018-09-19T18:44:11.517Z,101217.78
2018-09-19T18:46:40.551Z,101213.66
2018-09-19T18:49:09.376Z,101218.09
2018-09-19T18:51:38.211Z,101220.52
2018-09-19T18:54:07.046Z,101224.14
2018-09-19T18:56:35.917Z,101219.02
2018-09-19T18:59:04.740Z,101218.36
2018-09-19T19:01:33.577Z,101219.11
2018-09-19T19:04:02.493Z,101227.45
2018-09-19T19:06:31.329Z,101219.09
2018-09-19T19:09:00.151Z,101218.36
2018-09-19T19:11:28.983Z,101227.26
2018-09-19T19:13:57.795Z,101227.78
2018-09-19T19:16:26.625Z,101227.29
2018-09-19T19:18:55.473Z,101232.09
2018-09-19T19:21:24.282Z,101226.92
2018-09-19T19:23:53.119Z,101225.09
2018-09-19T19:26:21.953Z,101225.18
2018-09-19T19:28:50.793Z,101234.52
2018-09-19T19:31:19.624Z,101227.95
2018-09-19T19:33:48.457Z,101235.38
2018-09-19T19:36:17.291Z,101232.88
2018-09-19T19:38:46.143Z,101235.83
2018-09-19T19:41:14.985Z,101241.61
2018-09-19T19:43:43.821Z,101238.98
2018-09-19T19:46:12.645Z,101240.05
2018-09-19T19:48:41.500Z,101246.80
2018-09-19T19:51:10.342Z,101253.97
2018-09-19T19:53:39.152Z,101254.74
2018-09-19T19:56:07.981Z,101252.32
2018-09-19T19:58:36.819Z,101254.13
2018-09-19T20:01:05.644Z,101260.36
2018-09-19T20:03:34.461Z,101262.45
2018-09-19T20:06:03.288Z,101267.77
2018-09-19T20:08:32.097Z,101272.04
2018-09-19T20:11:00.963Z,101273.47
2018-09-19T20:13:29.800Z,101275.30
2018-09-19T20:15:58.633Z,101273.64
2018-09-19T20:18:27.459Z,101274.91
2018-09-19T20:20:56.282Z,101272.87
2018-09-19T20:23:25.179Z,101276.33
2018-09-19T20:25:53.993Z,101272.34
2018-09-19T20:28:22.842Z,101272.34
2018-09-19T20:30:51.660Z,101268.58
2018-09-19T20:33:20.500Z,101270.89
2018-09-19T20:35:49.363Z,101271.22
2018-09-19T20:38:18.233Z,101277.47
2018-09-19T20:40:47.045Z,101270.59
2018-09-19T20:43:15.905Z,101274.18
2018-09-19T20:45:44.719Z,101274.22
2018-09-19T20:48:13.536Z,101270.47
2018-09-19T20:50:42.416Z,101275.56
2018-09-19T20:53:11.236Z,101285.72
2018-09-19T20:55:40.088Z,101285.09
2018-09-19T20:58:08.904Z,101279.77
2018-09-19T21:00:37.738Z,101283.61
2018-09-19T21:03:06.669Z,101283.61
2018-09-19T21:05:35.482Z,101281.63
2018-09-19T21:08:04.341Z,101279.06
2018-09-19T21:10:33.335Z,101285.50
2018-09-19T21:13:02.148Z,101279.33
2018-09-19T21:15:30.968Z,101277.63
2018-09-19T21:17:59.808Z,101278.38
2018-09-19T21:20:28.623Z,101280.58
2018-09-19T21:22:57.469Z,101284.06
2018-09-19T21:25:26.365Z,101280.58
2018-09-19T21:27:55.195Z,101282.91
2018-09-19T21:30:24.008Z,101276.45
2018-09-19T21:32:52.835Z,101270.83
2018-09-19T21:35:21.674Z,101277.97
2018-09-19T21:37:50.505Z,101276.22
2018-09-19T21:40:19.343Z,101273.62
2018-09-19T21:42:48.171Z,101273.37
2018-09-19T21:45:17.051Z,101279.30
2018-09-19T21:47:45.888Z,101274.63
2018-09-19T21:50:14.697Z,101277.73
2018-09-19T21:52:43.584Z,101284.85
2018-09-19T21:55:12.417Z,101278.27
2018-09-19T21:57:41.252Z,101277.89
2018-09-19T22:00:10.107Z,101271.91
2018-09-19T22:02:38.905Z,101275.99
2018-09-19T22:05:07.579Z,101270.94
2018-09-19T22:07:36.386Z,101271.98
2018-09-19T22:10:05.236Z,101264.52
2018-09-19T22:12:34.057Z,101264.13
2018-09-19T22:15:02.915Z,101266.81
2018-09-19T22:17:31.737Z,101265.11
2018-09-19T22:20:00.596Z,101270.45
2018-09-19T22:22:29.438Z,101265.16
2018-09-19T22:24:58.283Z,101264.40
2018-09-19T22:27:27.157Z,101261.75
2018-09-19T22:29:55.942Z,101260.70
2018-09-19T22:32:24.778Z,101258.70
2018-09-19T22:34:53.606Z,101256.48
2018-09-19T22:37:22.449Z,101252.48
2018-09-19T22:39:51.288Z,101247.11
2018-09-19T22:42:20.133Z,101249.95
2018-09-19T22:44:48.999Z,101248.84
2018-09-19T22:47:17.862Z,101247.55
2018-09-19T22:49:46.708Z,101244.84
2018-09-19T22:52:15.539Z,101243.87
2018-09-19T22:54:44.376Z,101242.88
2018-09-19T22:57:13.205Z,101245.62
2018-09-19T22:59:42.050Z,101238.04
2018-09-19T23:02:10.925Z,101241.53
2018-09-19T23:04:39.754Z,101234.34
2018-09-19T23:07:08.590Z,101236.92
2018-09-19T23:09:37.470Z,101238.04
2018-09-19T23:12:06.311Z,101233.39
2018-09-19T23:14:35.125Z,101242.75
2018-09-19T23:17:04.126Z,101235.20
2018-09-19T23:19:32.968Z,101235.39
2018-09-19T23:22:02.117Z,101241.48
2018-09-19T23:24:30.965Z,101237.53
2018-09-19T23:26:59.808Z,101243.72
2018-09-19T23:29:28.649Z,101239.31
2018-09-19T23:31:57.492Z,101237.84
2018-09-19T23:34:26.385Z,101237.42
2018-09-19T23:36:55.238Z,101237.75
2018-09-19T23:39:24.097Z,101234.85
2018-09-19T23:41:52.908Z,101234.24
2018-09-19T23:44:21.765Z,101231.31
2018-09-19T23:46:50.620Z,101236.48
2018-09-19T23:49:19.527Z,101238.22
2018-09-19T23:51:48.323Z,101240.45
2018-09-19T23:54:17.152Z,101236.55
2018-09-19T23:56:46.000Z,101241.73
2018-09-19T23:59:14.826Z,101227.89
